Time;durP1;ratioP1;P1;durP2;ratioP2;P2;SDS_P1;SDS_P2;PMS_P1;PMS_P2;Temp;Humidity;BMP_temperature;BMP_pressure;BME280_temperature;BME280_humidity;BME280_pressure;Samples;Min_cycle;Max_cycle;Signal;HPM_P1;HPM_P2
2024/03/22 00:00:15;;;;;;;68.28;59.58;;;11.70;82.80;;;;;;4968339;28;112686;-58
2024/03/22 00:02:41;;;;;;;70.90;61.33;;;11.80;82.50;;;;;;4967966;28;112802;-57
2024/03/22 00:05:07;;;;;;;69.18;59.53;;;11.70;82.20;;;;;;4966782;28;114470;-58
2024/03/22 00:07:32;;;;;;;68.85;58.30;;;11.30;83.30;;;;;;4967013;28;112773;-58
2024/03/22 00:09:58;;;;;;;69.88;56.97;;;11.30;83.70;;;;;;4967369;28;112841;-57
2024/03/22 00:12:24;;;;;;;64.82;57.72;;;11.40;83.20;;;;;;4967755;28;113508;-58
2024/03/22 00:14:51;;;;;;;64.03;55.55;;;11.50;83.10;;;;;;4965852;28;113280;-57
2024/03/22 00:17:17;;;;;;;63.83;54.38;;;11.50;83.00;;;;;;4967012;28;112690;-58
2024/03/22 00:19:42;;;;;;;61.38;52.55;;;11.40;83.20;;;;;;4967817;28;112894;-57
2024/03/22 00:22:08;;;;;;;58.10;51.88;;;11.50;83.20;;;;;;4967566;28;112770;-57
2024/03/22 00:24:34;;;;;;;61.25;54.05;;;11.50;82.70;;;;;;4966355;28;113548;-57
2024/03/22 00:27:00;;;;;;;65.75;55.13;;;11.60;82.60;;;;;;4966576;28;112785;-58
2024/03/22 00:29:26;;;;;;;66.18;56.03;;;11.50;82.30;;;;;;4967436;28;113072;-58
2024/03/22 00:31:51;;;;;;;67.88;57.50;;;11.40;82.90;;;;;;4967407;28;112798;-58
2024/03/22 00:34:17;;;;;;;66.30;54.90;;;11.40;83.00;;;;;;4966286;28;113370;-57
2024/03/22 00:36:43;;;;;;;65.93;56.78;;;11.30;83.50;;;;;;4966277;28;113709;-59
2024/03/22 00:39:08;;;;;;;55.40;49.22;;;11.40;83.50;;;;;;4967241;28;112965;-58
2024/03/22 00:41:34;;;;;;;60.60;51.50;;;11.40;83.20;;;;;;4967298;28;113290;-58
2024/03/22 00:44:00;;;;;;;66.38;56.75;;;11.40;83.00;;;;;;4966126;28;114397;-57
2024/03/22 00:46:26;;;;;;;63.40;56.05;;;11.40;83.10;;;;;;4966522;28;113083;-58
2024/03/22 00:48:52;;;;;;;68.18;56.47;;;11.30;83.30;;;;;;4967197;28;112728;-57
2024/03/22 00:51:17;;;;;;;69.65;57.85;;;11.30;83.70;;;;;;4967369;28;112806;-58
2024/03/22 00:53:43;;;;;;;67.65;57.55;;;11.30;83.60;;;;;;4965917;28;114769;-57
2024/03/22 00:56:08;;;;;;;60.25;53.65;;;11.20;83.70;;;;;;4965940;28;112607;-57
2024/03/22 00:58:34;;;;;;;59.85;52.83;;;11.00;84.40;;;;;;4967127;28;113104;-57
2024/03/22 01:01:00;;;;;;;67.03;58.10;;;11.00;84.30;;;;;;4967051;28;112746;-58
2024/03/22 01:03:25;;;;;;;74.22;60.42;;;11.10;84.10;;;;;;4966159;28;113162;-57
2024/03/22 01:05:51;;;;;;;74.45;62.35;;;11.20;84.10;;;;;;4965571;28;113008;-57
2024/03/22 01:08:17;;;;;;;67.47;58.92;;;11.10;84.00;;;;;;4968511;28;114276;-57
2024/03/22 01:10:42;;;;;;;64.47;56.53;;;11.20;83.90;;;;;;4970510;28;112838;-57
2024/03/22 01:13:08;;;;;;;62.40;53.03;;;11.30;83.40;;;;;;4969292;28;113432;-58
2024/03/22 01:15:34;;;;;;;62.47;52.90;;;11.10;83.60;;;;;;4969005;28;113899;-57
2024/03/22 01:17:59;;;;;;;61.97;54.08;;;11.10;83.50;;;;;;4969329;28;113182;-58
2024/03/22 01:20:25;;;;;;;65.50;55.38;;;11.10;83.20;;;;;;4970289;28;112769;-57
2024/03/22 01:22:51;;;;;;;62.00;51.60;;;11.20;82.80;;;;;;4969330;28;113727;-57
2024/03/22 01:25:16;;;;;;;59.38;51.55;;;11.30;82.40;;;;;;4968781;28;113081;-59
2024/03/22 01:27:42;;;;;;;70.05;59.83;;;11.20;82.70;;;;;;4968767;28;112672;-57
2024/03/22 01:30:08;;;;;;;67.35;57.60;;;11.10;83.20;;;;;;4970027;28;112694;-58
2024/03/22 01:32:35;;;;;;;70.95;60.72;;;11.00;83.20;;;;;;4968510;28;114474;-57
2024/03/22 01:35:01;;;;;;;49.88;43.97;;;11.10;83.30;;;;;;4969107;28;112586;-57
2024/03/22 01:37:26;;;;;;;54.25;47.60;;;10.80;82.40;;;;;;4969796;28;112517;-57
2024/03/22 01:39:52;;;;;;;47.05;42.00;;;10.80;82.80;;;;;;4968316;28;113694;-57
2024/03/22 01:42:18;;;;;;;59.15;51.85;;;10.80;82.30;;;;;;4968985;28;113666;-57
2024/03/22 01:44:43;;;;;;;59.50;51.00;;;10.80;82.60;;;;;;4968680;28;113224;-58
2024/03/22 01:47:09;;;;;;;60.65;50.90;;;10.80;82.90;;;;;;4969453;28;113591;-58
2024/03/22 01:49:35;;;;;;;61.67;52.72;;;10.70;83.10;;;;;;4969725;28;113261;-57
2024/03/22 01:52:03;;;;;;;64.30;53.97;;;10.80;82.90;;;;;;4969090;28;113240;-57
2024/03/22 01:54:29;;;;;;;67.20;55.97;;;10.80;82.90;;;;;;4968439;28;112959;-58
2024/03/22 01:56:56;;;;;;;65.75;55.83;;;10.80;83.40;;;;;;4969934;28;113239;-57
2024/03/22 01:59:22;;;;;;;60.83;52.78;;;10.80;83.50;;;;;;4969557;28;113149;-57
2024/03/22 02:01:49;;;;;;;57.72;49.15;;;10.80;83.30;;;;;;4968320;28;113104;-57
2024/03/22 02:04:14;;;;;;;56.50;50.20;;;10.70;82.50;;;;;;4968498;28;112788;-57
2024/03/22 02:06:40;;;;;;;62.03;53.50;;;10.70;82.50;;;;;;4969858;28;112639;-58
2024/03/22 02:09:09;;;;;;;59.08;51.88;;;10.60;83.00;;;;;;4969527;28;112676;-57
2024/03/22 02:11:36;;;;;;;59.65;52.17;;;10.60;83.50;;;;;;4966314;28;114468;-58
2024/03/22 02:14:01;;;;;;;59.83;50.47;;;10.70;83.20;;;;;;4968394;28;112699;-57
2024/03/22 02:16:27;;;;;;;59.83;51.28;;;10.60;82.80;;;;;;4969504;28;113149;-57
2024/03/22 02:18:53;;;;;;;58.85;51.38;;;10.60;82.80;;;;;;4969548;28;112822;-58
2024/03/22 02:21:18;;;;;;;64.88;53.72;;;10.60;82.80;;;;;;4966851;28;113388;-58
2024/03/22 02:23:44;;;;;;;67.32;54.45;;;10.50;82.80;;;;;;4968343;28;112627;-58
2024/03/22 02:26:10;;;;;;;65.30;54.22;;;10.50;83.00;;;;;;4968671;28;112801;-57
2024/03/22 02:28:36;;;;;;;65.03;53.88;;;10.60;83.10;;;;;;4969037;28;113082;-58
2024/03/22 02:31:05;;;;;;;58.42;51.83;;;10.40;83.10;;;;;;4967407;28;113226;-57
2024/03/22 02:33:31;;;;;;;68.68;55.55;;;10.50;83.20;;;;;;4968358;28;112652;-57
2024/03/22 02:35:57;;;;;;;64.25;55.45;;;10.50;83.20;;;;;;4969214;28;112745;-57
2024/03/22 02:38:23;;;;;;;58.90;52.40;;;10.40;83.00;;;;;;4968649;28;112848;-57
2024/03/22 02:40:50;;;;;;;60.08;51.30;;;10.60;83.00;;;;;;4967700;28;113155;-57
2024/03/22 02:43:18;;;;;;;59.97;51.13;;;10.60;82.60;;;;;;4968026;28;112782;-57
2024/03/22 02:45:44;;;;;;;56.30;50.10;;;10.80;82.40;;;;;;4968910;28;112861;-57
2024/03/22 02:48:10;;;;;;;53.97;47.70;;;10.70;82.30;;;;;;4968308;28;112746;-57
2024/03/22 02:50:37;;;;;;;54.72;48.72;;;10.50;83.00;;;;;;4968103;28;113234;-57
2024/03/22 02:53:04;;;;;;;53.38;47.17;;;10.40;83.10;;;;;;4967752;28;112794;-57
2024/03/22 02:55:30;;;;;;;56.97;49.20;;;10.40;83.20;;;;;;4969029;28;112939;-57
2024/03/22 02:57:59;;;;;;;52.33;46.20;;;10.40;83.00;;;;;;4968473;28;112716;-58
2024/03/22 03:00:24;;;;;;;49.60;43.90;;;10.40;83.00;;;;;;4967597;28;113276;-58
2024/03/22 03:02:50;;;;;;;47.72;42.40;;;10.40;82.50;;;;;;4967258;28;114104;-57
2024/03/22 03:05:16;;;;;;;46.20;41.20;;;10.30;82.00;;;;;;4968687;28;112542;-58
2024/03/22 03:07:42;;;;;;;45.88;40.97;;;10.20;82.50;;;;;;4968623;28;112955;-58
2024/03/22 03:10:07;;;;;;;48.65;43.35;;;10.10;82.50;;;;;;4967262;28;114305;-57
2024/03/22 03:12:33;;;;;;;46.03;40.97;;;10.10;82.50;;;;;;4966771;28;115964;-57
2024/03/22 03:14:59;;;;;;;43.97;39.38;;;10.10;82.90;;;;;;4966729;28;112815;-58
2024/03/22 03:17:24;;;;;;;46.90;40.50;;;10.10;82.40;;;;;;4968567;28;113238;-56
2024/03/22 03:19:50;;;;;;;44.72;40.08;;;10.20;82.30;;;;;;4967158;28;113236;-58
2024/03/22 03:22:16;;;;;;;53.53;44.97;;;10.10;82.00;;;;;;4967033;28;114343;-58
2024/03/22 03:24:41;;;;;;;54.83;46.63;;;10.10;82.00;;;;;;4968343;28;113028;-57
2024/03/22 03:27:07;;;;;;;54.28;47.13;;;10.10;82.50;;;;;;4967940;28;112749;-58
2024/03/22 03:29:33;;;;;;;55.28;47.38;;;10.20;82.50;;;;;;4965193;28;115558;-57
2024/03/22 03:31:59;;;;;;;60.92;47.83;;;10.10;83.10;;;;;;4966328;28;113779;-57
2024/03/22 03:34:24;;;;;;;63.13;52.08;;;10.10;83.00;;;;;;4968419;28;112972;-57
2024/03/22 03:36:50;;;;;;;63.65;52.50;;;10.00;83.60;;;;;;4966466;28;113208;-57
2024/03/22 03:39:16;;;;;;;58.83;49.97;;;10.00;83.60;;;;;;4967067;28;113530;-58
2024/03/22 03:41:41;;;;;;;58.50;49.75;;;9.90;83.80;;;;;;4965432;28;114104;-58
2024/03/22 03:44:07;;;;;;;57.08;48.78;;;9.90;83.70;;;;;;4967964;28;112738;-57
2024/03/22 03:46:33;;;;;;;58.92;48.13;;;10.00;83.50;;;;;;4968400;28;112991;-59
2024/03/22 03:48:58;;;;;;;57.42;48.80;;;10.10;83.30;;;;;;4966390;28;114645;-58
2024/03/22 03:51:24;;;;;;;56.53;48.35;;;10.00;83.10;;;;;;4966797;28;114612;-57
2024/03/22 03:53:49;;;;;;;54.47;46.40;;;10.00;83.00;;;;;;4967357;28;113055;-57
2024/03/22 03:56:15;;;;;;;53.22;44.53;;;9.90;83.10;;;;;;4967703;28;112730;-57
2024/03/22 03:58:41;;;;;;;50.65;43.60;;;9.90;83.00;;;;;;4967216;28;113320;-58
2024/03/22 04:01:07;;;;;;;53.17;44.60;;;10.00;82.60;;;;;;4966722;28;112972;-57
2024/03/22 04:03:33;;;;;;;48.42;41.67;;;9.80;82.70;;;;;;4967573;28;112662;-57
2024/03/22 04:05:59;;;;;;;47.60;42.22;;;9.90;82.70;;;;;;4967840;28;113300;-58
2024/03/22 04:08:25;;;;;;;45.33;40.05;;;9.90;82.60;;;;;;4966827;28;114591;-57
2024/03/22 04:10:58;;;;;;;46.05;40.70;;;9.90;82.20;;;;;;4966382;28;112812;-57
2024/03/22 04:13:24;;;;;;;51.38;43.28;;;9.90;82.30;;;;;;4967428;28;113041;-57
2024/03/22 04:15:50;;;;;;;36.97;32.60;;;9.90;82.50;;;;;;4967601;28;112850;-57
2024/03/22 04:18:16;;;;;;;41.28;35.40;;;9.90;81.80;;;;;;4966847;28;113802;-57
2024/03/22 04:20:42;;;;;;;41.90;35.90;;;9.90;81.20;;;;;;4966827;28;113020;-57
2024/03/22 04:23:08;;;;;;;40.45;34.25;;;9.80;81.40;;;;;;4967496;28;112563;-57
2024/03/22 04:25:34;;;;;;;41.53;36.03;;;9.80;81.50;;;;;;4967401;28;113144;-57
2024/03/22 04:27:59;;;;;;;42.38;36.78;;;9.70;81.80;;;;;;4966309;28;113741;-57
2024/03/22 04:30:25;;;;;;;45.47;38.88;;;9.80;82.00;;;;;;4965779;28;113759;-58
2024/03/22 04:32:51;;;;;;;42.72;37.60;;;9.80;81.70;;;;;;4967497;28;112489;-58
2024/03/22 04:35:17;;;;;;;45.17;39.20;;;9.80;81.90;;;;;;4967239;28;113071;-58
2024/03/22 04:37:42;;;;;;;43.70;37.83;;;9.70;82.40;;;;;;4966541;28;113450;-58
2024/03/22 04:40:11;;;;;;;44.22;37.53;;;9.60;82.40;;;;;;4966047;28;113940;-57
2024/03/22 04:42:37;;;;;;;42.97;38.28;;;9.50;82.50;;;;;;4968268;28;112652;-58
2024/03/22 04:45:03;;;;;;;44.40;38.60;;;9.40;82.80;;;;;;4970631;28;113008;-57
2024/03/22 04:47:28;;;;;;;43.88;39.08;;;9.60;82.20;;;;;;4969692;28;113131;-57
2024/03/22 04:49:55;;;;;;;46.10;39.15;;;9.60;82.60;;;;;;4969615;28;113801;-57
2024/03/22 04:52:20;;;;;;;49.95;41.17;;;9.80;82.20;;;;;;4970723;28;112606;-57
2024/03/22 04:54:47;;;;;;;47.25;41.13;;;9.90;82.20;;;;;;4970527;28;112887;-57
2024/03/22 04:57:13;;;;;;;47.67;41.47;;;9.90;82.20;;;;;;4969461;28;113872;-58
2024/03/22 04:59:38;;;;;;;46.00;39.38;;;9.80;82.50;;;;;;4970111;28;113114;-57
2024/03/22 05:02:04;;;;;;;41.05;36.63;;;9.80;82.30;;;;;;4970411;28;112606;-57
2024/03/22 05:04:30;;;;;;;45.15;38.15;;;9.70;81.70;;;;;;4970436;28;112633;-58
2024/03/22 05:06:55;;;;;;;43.65;38.13;;;9.80;82.00;;;;;;4969796;28;113942;-57
2024/03/22 05:09:21;;;;;;;48.95;39.00;;;9.80;81.90;;;;;;4969193;28;112950;-57
2024/03/22 05:11:50;;;;;;;41.67;36.65;;;9.80;81.70;;;;;;4970443;28;112585;-58
2024/03/22 05:14:16;;;;;;;43.42;35.78;;;9.80;82.00;;;;;;4969503;28;112718;-58
2024/03/22 05:16:42;;;;;;;43.33;35.63;;;9.80;82.00;;;;;;4969720;28;113457;-57
2024/03/22 05:19:08;;;;;;;35.70;31.88;;;9.90;81.60;;;;;;4969927;28;112701;-57
2024/03/22 05:21:34;;;;;;;33.78;29.92;;;9.80;80.80;;;;;;4969921;28;112599;-58
2024/03/22 05:23:59;;;;;;;37.88;33.53;;;9.80;80.70;;;;;;4970428;28;112763;-58
2024/03/22 05:26:25;;;;;;;33.97;30.30;;;9.80;80.80;;;;;;4969241;28;113156;-57
2024/03/22 05:28:50;;;;;;;37.42;32.55;;;9.80;80.70;;;;;;4968555;28;112662;-57
2024/03/22 05:31:16;;;;;;;38.25;34.25;;;9.80;80.80;;;;;;4969751;28;112529;-57
2024/03/22 05:33:42;;;;;;;37.97;33.90;;;9.70;80.70;;;;;;4969762;28;112804;-57
2024/03/22 05:36:07;;;;;;;41.42;34.47;;;9.80;81.00;;;;;;4968993;28;113323;-57
2024/03/22 05:38:33;;;;;;;38.88;34.72;;;9.80;81.30;;;;;;4968830;28;112746;-57
2024/03/22 05:41:04;;;;;;;42.65;34.83;;;9.60;81.20;;;;;;4969325;28;112554;-58
2024/03/22 05:43:29;;;;;;;38.22;34.03;;;9.30;81.90;;;;;;4970025;28;112622;-59
2024/03/22 05:45:55;;;;;;;38.40;33.50;;;9.20;82.60;;;;;;4968526;28;113213;-57
2024/03/22 05:48:21;;;;;;;38.15;34.13;;;9.30;82.30;;;;;;4968732;28;114220;-57
2024/03/22 05:50:46;;;;;;;39.65;35.42;;;9.50;82.00;;;;;;4969259;28;112713;-57
2024/03/22 05:53:12;;;;;;;40.65;36.15;;;9.70;82.00;;;;;;4969516;28;112721;-57
2024/03/22 05:55:38;;;;;;;40.75;36.20;;;9.80;81.70;;;;;;4968743;28;113805;-57
2024/03/22 05:58:04;;;;;;;39.25;35.05;;;9.70;82.10;;;;;;4969010;28;113020;-57
2024/03/22 06:00:30;;;;;;;46.55;36.58;;;9.80;82.10;;;;;;4969557;28;112555;-57
2024/03/22 06:02:56;;;;;;;42.63;35.88;;;9.90;82.40;;;;;;4969421;28;113000;-57
2024/03/22 06:05:22;;;;;;;42.20;37.10;;;10.00;82.40;;;;;;4968700;28;114463;-57
2024/03/22 06:07:47;;;;;;;43.53;36.38;;;10.10;82.20;;;;;;4968200;28;112662;-57
2024/03/22 06:10:13;;;;;;;45.03;37.97;;;10.30;82.20;;;;;;4969211;28;114019;-58
2024/03/22 06:12:39;;;;;;;41.85;37.20;;;10.30;82.00;;;;;;4969368;28;113225;-57
2024/03/22 06:15:06;;;;;;;42.25;36.90;;;10.40;82.00;;;;;;4968157;28;114380;-57
2024/03/22 06:17:33;;;;;;;43.47;37.58;;;10.60;82.00;;;;;;4968627;28;113838;-57
2024/03/22 06:20:00;;;;;;;42.17;36.78;;;10.50;82.20;;;;;;4968641;28;112694;-59
2024/03/22 06:41:19;;;;;;;44.35;39.38;;;11.20;82.70;;;;;;4962783;28;113894;-55
2024/03/22 06:43:46;;;;;;;68.07;57.03;;;11.60;81.30;;;;;;4963601;28;112844;-55
2024/03/22 06:46:11;;;;;;;67.97;56.05;;;11.60;81.50;;;;;;4952320;28;113000;-54
2024/03/22 06:48:37;;;;;;;62.33;53.00;;;11.80;81.30;;;;;;4944304;28;114699;-54
2024/03/22 06:51:03;;;;;;;52.95;45.55;;;11.70;81.70;;;;;;4956870;28;112615;-55
2024/03/22 06:53:29;;;;;;;47.88;40.03;;;11.90;81.40;;;;;;4963105;28;112834;-55
2024/03/22 06:55:54;;;;;;;43.63;37.63;;;12.00;81.00;;;;;;4964052;28;112698;-55
2024/03/22 06:58:20;;;;;;;44.55;38.45;;;12.20;80.80;;;;;;4962178;28;113468;-56
2024/03/22 07:00:45;;;;;;;44.75;36.75;;;12.40;80.60;;;;;;4962872;28;112423;-56
2024/03/22 07:03:11;;;;;;;39.80;33.70;;;12.50;80.80;;;;;;4963308;28;114612;-56
2024/03/22 07:05:37;;;;;;;39.85;33.58;;;12.70;80.70;;;;;;4960148;28;113092;-56
2024/03/22 07:08:02;;;;;;;34.58;30.48;;;12.80;80.60;;;;;;4946221;28;113159;-54
2024/03/22 07:10:28;;;;;;;34.55;29.38;;;12.90;79.50;;;;;;4948616;28;113051;-56
2024/03/22 07:12:55;;;;;;;38.45;30.95;;;13.10;78.40;;;;;;4947382;28;113061;-56
2024/03/22 07:15:22;;;;;;;34.05;30.40;;;13.30;78.60;;;;;;4949287;28;112738;-56
2024/03/22 07:17:48;;;;;;;32.15;28.05;;;13.50;78.80;;;;;;4945871;28;113211;-56
2024/03/22 07:20:14;;;;;;;29.23;26.13;;;13.60;78.60;;;;;;4946848;28;114301;-56
2024/03/22 07:22:40;;;;;;;26.10;23.38;;;13.70;77.60;;;;;;4948371;28;112928;-56
2024/03/22 07:25:05;;;;;;;26.58;23.33;;;13.80;76.40;;;;;;4947206;28;112677;-55
2024/03/22 07:27:31;;;;;;;26.45;23.65;;;14.00;76.00;;;;;;4948204;28;113125;-57
2024/03/22 07:29:57;;;;;;;31.13;23.33;;;14.20;75.40;;;;;;4943457;28;112600;-56
2024/03/22 07:32:23;;;;;;;27.02;24.15;;;14.40;74.80;;;;;;4963449;28;112762;-56
2024/03/22 07:34:49;;;;;;;25.55;22.63;;;14.50;75.30;;;;;;4964036;28;113020;-56
2024/03/22 07:37:14;;;;;;;27.20;24.38;;;14.70;74.30;;;;;;4962621;28;113962;-56
2024/03/22 07:39:40;;;;;;;27.70;23.92;;;14.80;74.80;;;;;;4962444;28;112873;-56
2024/03/22 07:42:06;;;;;;;28.77;25.27;;;14.90;74.40;;;;;;4951829;28;112772;-56
2024/03/22 07:44:32;;;;;;;27.63;24.58;;;15.00;74.40;;;;;;4951004;28;112670;-56
2024/03/22 07:46:57;;;;;;;27.40;23.83;;;15.30;75.20;;;;;;4949756;28;113217;-57
2024/03/22 07:49:23;;;;;;;24.50;21.90;;;15.40;74.40;;;;;;4944241;28;112624;-56
2024/03/22 07:51:49;;;;;;;23.80;21.33;;;15.50;73.30;;;;;;4942303;28;112668;-56
2024/03/22 07:54:14;;;;;;;23.38;20.95;;;15.60;72.10;;;;;;4950221;28;112715;-56
2024/03/22 07:56:40;;;;;;;23.65;21.25;;;15.90;70.80;;;;;;4949257;28;114377;-57
2024/03/22 07:59:05;;;;;;;25.55;22.88;;;16.10;70.00;;;;;;4949479;28;112860;-56
2024/03/22 08:01:31;;;;;;;25.85;23.05;;;16.10;70.40;;;;;;4950430;28;112599;-56
2024/03/22 08:03:57;;;;;;;24.52;21.90;;;16.20;71.80;;;;;;4950660;28;112959;-56
2024/03/22 08:06:22;;;;;;;24.88;21.85;;;16.30;71.90;;;;;;4949151;28;113291;-55
2024/03/22 08:08:48;;;;;;;24.13;21.65;;;16.60;70.60;;;;;;4949115;28;113730;-55
2024/03/22 08:11:15;;;;;;;23.83;21.40;;;16.70;70.90;;;;;;4950234;28;112886;-55
2024/03/22 08:13:40;;;;;;;23.67;21.05;;;16.70;68.70;;;;;;4950558;28;112771;-55
2024/03/22 08:16:06;;;;;;;22.40;19.77;;;16.60;68.70;;;;;;4948970;28;114346;-56
2024/03/22 08:18:35;;;;;;;22.48;20.17;;;16.60;67.90;;;;;;4949110;28;113786;-56
2024/03/22 08:21:01;;;;;;;22.63;19.73;;;16.90;68.80;;;;;;4950107;28;112500;-55
2024/03/22 08:23:26;;;;;;;22.38;19.90;;;17.00;68.00;;;;;;4950198;28;113371;-55
2024/03/22 08:25:52;;;;;;;24.85;19.40;;;17.30;68.20;;;;;;4949659;28;113157;-56
2024/03/22 08:28:18;;;;;;;21.67;19.50;;;17.30;66.70;;;;;;4948991;28;112649;-54
2024/03/22 08:30:43;;;;;;;21.10;18.88;;;17.40;67.30;;;;;;4935951;28;112544;-55
2024/03/22 08:33:11;;;;;;;20.92;18.25;;;17.70;67.20;;;;;;4950079;28;112794;-54
2024/03/22 08:35:37;;;;;;;20.23;18.10;;;17.70;64.40;;;;;;4948811;28;113193;-55
2024/03/22 08:38:04;;;;;;;20.60;18.02;;;17.70;64.30;;;;;;4949023;28;113143;-56
2024/03/22 08:40:29;;;;;;;20.60;17.65;;;17.80;64.10;;;;;;4949377;28;112984;-56
2024/03/22 08:42:55;;;;;;;21.70;17.35;;;18.00;64.80;;;;;;4949803;28;112982;-55
2024/03/22 08:45:21;;;;;;;18.63;16.63;;;18.20;63.20;;;;;;4948809;28;113249;-56
2024/03/22 08:47:47;;;;;;;19.05;16.38;;;18.30;61.90;;;;;;4948825;28;113716;-56
2024/03/22 08:50:13;;;;;;;17.83;16.05;;;18.40;61.20;;;;;;4949772;28;112487;-56
2024/03/22 08:52:38;;;;;;;17.30;15.65;;;18.50;59.70;;;;;;4948614;28;112667;-55
2024/03/22 08:55:06;;;;;;;17.75;15.95;;;18.80;59.00;;;;;;4948351;28;114482;-55
2024/03/22 08:57:33;;;;;;;16.02;14.45;;;18.90;58.80;;;;;;4948470;28;113460;-56
2024/03/22 08:59:58;;;;;;;16.35;13.93;;;19.00;57.10;;;;;;4949330;28;112570;-55
2024/03/22 09:02:24;;;;;;;15.57;14.07;;;19.20;57.20;;;;;;4948063;28;112848;-55
2024/03/22 09:04:50;;;;;;;16.23;14.65;;;19.40;57.10;;;;;;4948420;28;113456;-55
2024/03/22 09:07:15;;;;;;;15.77;14.18;;;19.60;57.70;;;;;;4948414;28;112626;-57
2024/03/22 09:09:41;;;;;;;18.00;14.85;;;19.90;57.50;;;;;;4949493;28;112838;-55
2024/03/22 09:12:07;;;;;;;14.45;13.02;;;20.10;56.50;;;;;;4949572;28;112702;-56
2024/03/22 09:14:33;;;;;;;11.32;10.07;;;20.00;54.80;;;;;;4948358;28;113162;-56
2024/03/22 09:16:58;;;;;;;9.48;7.60;;;19.90;52.60;;;;;;4948132;28;112634;-56
2024/03/22 09:19:24;;;;;;;11.32;9.20;;;20.10;51.40;;;;;;4950243;28;112735;-55
2024/03/22 09:21:50;;;;;;;10.98;9.98;;;20.30;52.00;;;;;;4950647;28;112857;-55
2024/03/22 09:24:15;;;;;;;11.05;9.82;;;20.30;51.90;;;;;;4948682;28;114519;-56
2024/03/22 09:26:41;;;;;;;10.98;9.88;;;20.80;52.40;;;;;;4949422;28;113026;-55
2024/03/22 09:29:07;;;;;;;12.55;11.35;;;21.00;53.70;;;;;;4944166;28;112947;-55
2024/03/22 09:31:33;;;;;;;12.48;11.15;;;20.90;53.20;;;;;;4941879;28;112707;-55
2024/03/22 09:33:59;;;;;;;11.15;10.15;;;20.90;52.30;;;;;;4947977;28;113251;-56
2024/03/22 09:36:24;;;;;;;9.10;8.20;;;21.20;50.60;;;;;;4947837;28;113535;-56
2024/03/22 09:38:51;;;;;;;10.25;9.27;;;21.30;50.50;;;;;;4950292;28;112945;-57
2024/03/22 09:41:24;;;;;;;7.78;7.07;;;21.40;50.00;;;;;;4950228;28;112710;-56
2024/03/22 09:43:51;;;;;;;7.50;6.38;;;21.70;47.60;;;;;;4949103;28;113965;-57
2024/03/22 09:46:19;;;;;;;9.23;7.30;;;21.50;46.90;;;;;;4949052;28;112903;-55
2024/03/22 09:48:47;;;;;;;21.70;7.85;;;21.40;47.70;;;;;;4950069;28;112681;-56
2024/03/22 09:51:13;;;;;;;6.43;5.80;;;21.60;47.70;;;;;;4950187;28;112836;-56
2024/03/22 09:53:39;;;;;;;5.60;5.00;;;21.70;44.90;;;;;;4949107;28;113226;-56
2024/03/22 09:56:06;;;;;;;5.70;5.13;;;21.80;44.70;;;;;;4948560;28;113804;-55
2024/03/22 09:58:32;;;;;;;4.72;4.32;;;21.70;44.60;;;;;;4950027;28;112772;-55
2024/03/22 10:01:00;;;;;;;4.30;3.90;;;22.00;44.20;;;;;;4949610;28;112765;-56
2024/03/22 10:03:26;;;;;;;6.45;5.40;;;22.40;43.80;;;;;;4948513;28;114479;-55
2024/03/22 10:05:52;;;;;;;6.13;4.07;;;22.30;43.40;;;;;;4948770;28;112623;-55
2024/03/22 10:08:18;;;;;;;3.08;2.70;;;22.60;42.60;;;;;;4949807;28;112883;-57
2024/03/22 10:10:43;;;;;;;4.10;3.80;;;22.20;41.20;;;;;;4950060;28;113005;-56
2024/03/22 10:13:09;;;;;;;5.18;3.63;;;22.60;42.20;;;;;;4948406;28;114415;-57
2024/03/22 10:15:34;;;;;;;5.88;3.65;;;22.90;42.70;;;;;;4948540;28;113081;-56
2024/03/22 10:18:00;;;;;;;5.70;3.97;;;23.80;41.10;;;;;;4949696;28;112895;-55
2024/03/22 10:20:26;;;;;;;4.47;4.07;;;23.40;41.10;;;;;;4949900;28;112639;-55
2024/03/22 10:23:00;;;;;;;4.32;3.85;;;23.60;40.70;;;;;;4948773;28;113378;-56
2024/03/22 10:25:30;;;;;;;4.32;3.92;;;23.80;40.20;;;;;;4949187;28;112590;-56
2024/03/22 10:27:56;;;;;;;4.53;3.55;;;24.90;41.00;;;;;;4949415;28;112905;-56
2024/03/22 10:30:23;;;;;;;2.85;2.28;;;27.90;35.60;;;;;;4936053;28;112674;-56
2024/03/22 10:32:49;;;;;;;3.33;3.03;;;31.80;29.40;;;;;;4948388;28;114447;-56
2024/03/22 10:35:16;;;;;;;3.42;3.13;;;32.90;28.30;;;;;;4948354;28;112638;-58
2024/03/22 10:37:42;;;;;;;3.80;3.42;;;32.40;28.30;;;;;;4949678;28;112841;-56
2024/03/22 10:40:09;;;;;;;3.45;3.15;;;33.40;25.90;;;;;;4947875;28;112708;-56
2024/03/22 10:42:36;;;;;;;4.03;3.08;;;35.20;24.80;;;;;;4947847;28;114461;-55
2024/03/22 10:45:03;;;;;;;3.80;3.30;;;37.10;23.10;;;;;;4947982;28;112752;-55
2024/03/22 10:47:31;;;;;;;3.78;3.42;;;38.00;22.30;;;;;;4948858;28;112779;-56
2024/03/22 10:50:08;;;;;;;3.20;2.90;;;37.60;22.70;;;;;;4949040;28;112754;-56
2024/03/22 10:52:44;;;;;;;3.35;2.70;;;38.20;22.00;;;;;;4947956;28;114302;-57
2024/03/22 10:55:15;;;;;;;2.90;2.70;;;38.40;21.60;;;;;;4946060;28;113887;-57
2024/03/22 10:57:41;;;;;;;2.97;2.78;;;39.20;21.10;;;;;;4948857;28;112823;-56
2024/03/22 11:00:10;;;;;;;2.83;2.60;;;40.00;20.50;;;;;;4948801;28;112771;-56
2024/03/22 11:02:37;;;;;;;3.45;3.22;;;41.00;20.70;;;;;;4947815;28;113767;-56
2024/03/22 11:05:03;;;;;;;3.33;3.03;;;41.30;19.80;;;;;;4947766;28;113020;-56
2024/03/22 11:07:33;;;;;;;4.63;3.40;;;42.60;19.40;;;;;;4948518;28;112926;-57
2024/03/22 11:10:03;;;;;;;3.30;3.00;;;42.00;18.60;;;;;;4948804;28;112739;-58
2024/03/22 11:12:32;;;;;;;3.55;3.25;;;41.70;19.80;;;;;;4948004;28;113309;-56
2024/03/22 11:14:58;;;;;;;3.72;3.28;;;43.10;18.60;;;;;;4947442;28;112922;-56
2024/03/22 11:17:24;;;;;;;3.35;3.10;;;43.90;18.60;;;;;;4951488;28;112473;-55
2024/03/22 11:19:52;;;;;;;3.55;3.25;;;44.80;17.60;;;;;;4951485;28;112783;-56
2024/03/22 11:22:18;;;;;;;3.95;3.72;;;43.60;18.50;;;;;;4950799;28;114744;-56
2024/03/22 11:24:44;;;;;;;4.50;4.10;;;41.30;19.60;;;;;;4951275;28;112822;-56
2024/03/22 11:27:11;;;;;;;4.60;4.20;;;40.40;19.90;;;;;;4952004;28;112574;-56
2024/03/22 11:29:41;;;;;;;5.78;4.68;;;42.40;18.80;;;;;;4941617;28;113271;-57
2024/03/22 11:32:10;;;;;;;5.15;4.85;;;42.10;18.80;;;;;;4947906;28;115323;-56
2024/03/22 11:34:37;;;;;;;4.85;4.47;;;42.20;18.80;;;;;;4950610;28;112585;-57
2024/03/22 11:37:04;;;;;;;4.70;4.30;;;43.90;18.40;;;;;;4951869;28;112681;-56
2024/03/22 11:39:29;;;;;;;4.90;4.50;;;45.90;17.50;;;;;;4951722;28;113111;-56
2024/03/22 11:41:55;;;;;;;4.78;4.38;;;46.40;16.60;;;;;;4950703;28;113476;-56
2024/03/22 11:44:25;;;;;;;4.20;3.90;;;46.10;16.90;;;;;;4923458;28;112869;-57
2024/03/22 11:46:51;;;;;;;4.05;3.50;;;44.00;17.10;;;;;;4951487;28;112800;-56
2024/03/22 11:49:17;;;;;;;4.90;3.90;;;42.30;18.20;;;;;;4951529;28;112733;-56
2024/03/22 11:51:44;;;;;;;4.45;4.15;;;41.40;18.30;;;;;;4950588;28;113124;-57
2024/03/22 11:54:10;;;;;;;4.25;3.85;;;40.40;19.00;;;;;;4950148;28;113231;-56
2024/03/22 11:56:36;;;;;;;3.70;3.50;;;41.50;18.80;;;;;;4951647;28;112807;-58
2024/03/22 11:59:03;;;;;;;3.92;3.63;;;44.30;17.00;;;;;;4951469;28;112934;-57
2024/03/22 12:01:30;;;;;;;4.45;4.15;;;46.40;16.40;;;;;;4950439;28;113172;-57
2024/03/22 12:03:55;;;;;;;4.15;3.88;;;45.40;16.80;;;;;;4950173;28;112722;-57
2024/03/22 12:06:22;;;;;;;3.65;3.45;;;46.10;16.30;;;;;;4951068;28;112729;-58
2024/03/22 12:08:47;;;;;;;3.70;3.40;;;47.60;15.60;;;;;;4951284;28;113161;-57
2024/03/22 12:11:14;;;;;;;3.20;3.00;;;46.20;16.00;;;;;;4950037;28;113660;-57
2024/03/22 12:13:40;;;;;;;3.25;2.97;;;44.80;17.10;;;;;;4950178;28;112850;-56
2024/03/22 12:16:07;;;;;;;3.33;3.13;;;43.60;16.90;;;;;;4951065;28;112838;-56
2024/03/22 12:18:33;;;;;;;5.78;3.10;;;44.40;16.90;;;;;;4951266;28;112965;-56
2024/03/22 12:20:59;;;;;;;3.10;2.80;;;46.80;16.30;;;;;;4950060;28;113543;-56
2024/03/22 12:23:25;;;;;;;3.22;3.03;;;46.80;15.70;;;;;;4949962;28;113449;-56
2024/03/22 12:25:51;;;;;;;3.40;2.90;;;44.90;16.60;;;;;;4951510;28;112475;-56
2024/03/22 12:28:18;;;;;;;2.90;2.70;;;46.40;15.90;;;;;;4950797;28;112725;-56
2024/03/22 12:30:44;;;;;;;3.53;3.22;;;47.50;16.10;;;;;;4935857;28;113202;-56
2024/03/22 12:33:10;;;;;;;3.67;3.38;;;45.40;16.30;;;;;;4948127;28;113814;-56
2024/03/22 12:35:40;;;;;;;3.30;3.10;;;42.30;17.50;;;;;;4950670;28;112531;-56